Terminal Aerodrome Forecast
Issued by NWS Northern Indiana

Home | Current Version | Previous Version | Text Only | Print | Product List | Glossary On
Versions: 1 2 3 4 5 6 7 8 9 10 11 12 13 14
000
FTUS43 KIWX 151622 AAA
TAFFWA
TAF AMD
KFWA 151622Z 1516/1612 27019G28KT P6SM -RA BKN016 OVC025
      TEMPO 1516/1518 5SM SHRA BR OVC012
     FM151900 29019G28KT P6SM VCSH OVC020
     FM152300 31010KT P6SM BKN035=

USA.gov is the U.S. government's official web portal to all federal, state and local government web resources and services.